sensor_id;sensor_type;location;lat;lon;timestamp;pressure;altitude;pressure_sealevel;temperature
71960;BMP280;59832;51.146;14.024;2024-03-23T00:54:38;97418.50;;;8.26
71960;BMP280;59832;51.146;14.024;2024-03-23T00:57:04;97405.25;;;8.13
71960;BMP280;59832;51.146;14.024;2024-03-23T00:59:30;97404.13;;;8.07
71960;BMP280;59832;51.146;14.024;2024-03-23T01:01:56;97402.66;;;8.06
71960;BMP280;59832;51.146;14.024;2024-03-23T01:04:21;97405.41;;;7.97
71960;BMP280;59832;51.146;14.024;2024-03-23T01:06:47;97405.94;;;7.87
71960;BMP280;59832;51.146;14.024;2024-03-23T01:09:12;97403.06;;;7.85
71960;BMP280;59832;51.146;14.024;2024-03-23T01:11:38;97399.41;;;7.83
71960;BMP280;59832;51.146;14.024;2024-03-23T01:14:04;97400.47;;;7.82
71960;BMP280;59832;51.146;14.024;2024-03-23T01:16:29;97410.09;;;7.72
71960;BMP280;59832;51.146;14.024;2024-03-23T01:18:55;97407.72;;;7.60
71960;BMP280;59832;51.146;14.024;2024-03-23T01:21:20;97409.34;;;7.49
71960;BMP280;59832;51.146;14.024;2024-03-23T01:23:46;97413.19;;;7.43
71960;BMP280;59832;51.146;14.024;2024-03-23T01:26:11;97408.09;;;7.40
71960;BMP280;59832;51.146;14.024;2024-03-23T01:28:36;97409.69;;;7.28
71960;BMP280;59832;51.146;14.024;2024-03-23T01:31:02;97403.50;;;7.26
71960;BMP280;59832;51.146;14.024;2024-03-23T01:33:27;97406.22;;;7.37
71960;BMP280;59832;51.146;14.024;2024-03-23T01:35:53;97397.66;;;7.41
71960;BMP280;59832;51.146;14.024;2024-03-23T01:38:18;97396.47;;;7.58
71960;BMP280;59832;51.146;14.024;2024-03-23T01:40:43;97386.25;;;7.54
71960;BMP280;59832;51.146;14.024;2024-03-23T01:43:09;97385.09;;;7.48
71960;BMP280;59832;51.146;14.024;2024-03-23T01:45:34;97371.28;;;7.46
71960;BMP280;59832;51.146;14.024;2024-03-23T01:48:00;97364.56;;;7.53
71960;BMP280;59832;51.146;14.024;2024-03-23T01:50:26;97360.41;;;7.42
71960;BMP280;59832;51.146;14.024;2024-03-23T01:52:52;97355.19;;;7.35
71960;BMP280;59832;51.146;14.024;2024-03-23T01:55:18;97345.47;;;7.37
71960;BMP280;59832;51.146;14.024;2024-03-23T01:57:43;97347.66;;;7.38
71960;BMP280;59832;51.146;14.024;2024-03-23T02:00:09;97342.53;;;7.35
71960;BMP280;59832;51.146;14.024;2024-03-23T02:02:41;97341.88;;;7.38
71960;BMP280;59832;51.146;14.024;2024-03-23T02:05:07;97343.84;;;7.25
71960;BMP280;59832;51.146;14.024;2024-03-23T02:07:33;97329.81;;;7.31
71960;BMP280;59832;51.146;14.024;2024-03-23T02:10:00;97328.03;;;7.32
71960;BMP280;59832;51.146;14.024;2024-03-23T02:12:26;97324.38;;;7.29
71960;BMP280;59832;51.146;14.024;2024-03-23T02:14:51;97326.38;;;7.20
71960;BMP280;59832;51.146;14.024;2024-03-23T02:17:16;97325.63;;;7.16
71960;BMP280;59832;51.146;14.024;2024-03-23T02:19:42;97328.16;;;7.16
71960;BMP280;59832;51.146;14.024;2024-03-23T02:22:07;97321.13;;;7.09
71960;BMP280;59832;51.146;14.024;2024-03-23T02:24:32;97326.06;;;7.02
71960;BMP280;59832;51.146;14.024;2024-03-23T02:26:59;97321.84;;;7.06
71960;BMP280;59832;51.146;14.024;2024-03-23T02:29:24;97318.50;;;7.02
71960;BMP280;59832;51.146;14.024;2024-03-23T02:31:50;97309.69;;;7.15
71960;BMP280;59832;51.146;14.024;2024-03-23T02:34:15;97309.47;;;7.24
71960;BMP280;59832;51.146;14.024;2024-03-23T02:36:41;97301.78;;;7.17
71960;BMP280;59832;51.146;14.024;2024-03-23T02:39:06;97306.56;;;7.03
71960;BMP280;59832;51.146;14.024;2024-03-23T02:41:31;97302.63;;;7.24
71960;BMP280;59832;51.146;14.024;2024-03-23T02:43:57;97302.34;;;7.10
71960;BMP280;59832;51.146;14.024;2024-03-23T02:46:22;97291.72;;;7.01
71960;BMP280;59832;51.146;14.024;2024-03-23T02:48:48;97281.03;;;6.89
71960;BMP280;59832;51.146;14.024;2024-03-23T02:51:14;97286.38;;;6.64
71960;BMP280;59832;51.146;14.024;2024-03-23T02:53:39;97280.31;;;6.50
71960;BMP280;59832;51.146;14.024;2024-03-23T02:56:04;97291.34;;;6.61
71960;BMP280;59832;51.146;14.024;2024-03-23T02:58:30;97281.84;;;6.54
71960;BMP280;59832;51.146;14.024;2024-03-23T03:00:55;97277.31;;;6.44
71960;BMP280;59832;51.146;14.024;2024-03-23T03:03:21;97271.63;;;6.31
71960;BMP280;59832;51.146;14.024;2024-03-23T03:05:46;97273.22;;;6.20
71960;BMP280;59832;51.146;14.024;2024-03-23T03:08:11;97268.59;;;6.41
71960;BMP280;59832;51.146;14.024;2024-03-23T03:10:37;97268.06;;;6.52
71960;BMP280;59832;51.146;14.024;2024-03-23T03:13:02;97279.66;;;6.72
71960;BMP280;59832;51.146;14.024;2024-03-23T03:15:28;97270.72;;;6.78
71960;BMP280;59832;51.146;14.024;2024-03-23T03:17:53;97260.69;;;6.81
71960;BMP280;59832;51.146;14.024;2024-03-23T03:20:19;97258.69;;;6.91
71960;BMP280;59832;51.146;14.024;2024-03-23T03:22:44;97249.41;;;6.98
71960;BMP280;59832;51.146;14.024;2024-03-23T03:25:10;97248.34;;;6.99
71960;BMP280;59832;51.146;14.024;2024-03-23T03:27:35;97249.78;;;7.00
71960;BMP280;59832;51.146;14.024;2024-03-23T03:30:01;97249.06;;;7.00
71960;BMP280;59832;51.146;14.024;2024-03-23T03:32:28;97255.34;;;7.09
71960;BMP280;59832;51.146;14.024;2024-03-23T03:34:54;97246.69;;;7.07
71960;BMP280;59832;51.146;14.024;2024-03-23T03:37:19;97247.66;;;7.02
71960;BMP280;59832;51.146;14.024;2024-03-23T03:39:44;97239.00;;;7.03
71960;BMP280;59832;51.146;14.024;2024-03-23T03:42:10;97234.69;;;7.04
71960;BMP280;59832;51.146;14.024;2024-03-23T03:44:35;97231.38;;;7.00
71960;BMP280;59832;51.146;14.024;2024-03-23T03:47:02;97234.16;;;6.95
71960;BMP280;59832;51.146;14.024;2024-03-23T03:49:27;97238.22;;;6.99
71960;BMP280;59832;51.146;14.024;2024-03-23T03:51:53;97243.19;;;6.96
71960;BMP280;59832;51.146;14.024;2024-03-23T03:54:18;97232.56;;;7.06
71960;BMP280;59832;51.146;14.024;2024-03-23T03:56:43;97224.97;;;7.06
71960;BMP280;59832;51.146;14.024;2024-03-23T03:59:09;97214.50;;;7.07
71960;BMP280;59832;51.146;14.024;2024-03-23T04:01:34;97203.81;;;7.17
71960;BMP280;59832;51.146;14.024;2024-03-23T04:04:00;97194.72;;;7.13
71960;BMP280;59832;51.146;14.024;2024-03-23T04:06:26;97203.59;;;7.03
71960;BMP280;59832;51.146;14.024;2024-03-23T04:08:51;97205.22;;;6.92
71960;BMP280;59832;51.146;14.024;2024-03-23T04:11:17;97210.69;;;6.94
71960;BMP280;59832;51.146;14.024;2024-03-23T04:13:42;97201.94;;;6.92
71960;BMP280;59832;51.146;14.024;2024-03-23T04:16:08;97201.63;;;6.93
71960;BMP280;59832;51.146;14.024;2024-03-23T04:18:34;97202.00;;;6.95
71960;BMP280;59832;51.146;14.024;2024-03-23T04:21:00;97191.56;;;6.97
71960;BMP280;59832;51.146;14.024;2024-03-23T04:23:25;97184.75;;;7.01
71960;BMP280;59832;51.146;14.024;2024-03-23T04:25:51;97184.59;;;6.90
71960;BMP280;59832;51.146;14.024;2024-03-23T04:28:18;97187.69;;;7.03
71960;BMP280;59832;51.146;14.024;2024-03-23T04:30:44;97189.44;;;6.99
71960;BMP280;59832;51.146;14.024;2024-03-23T04:33:09;97186.06;;;6.91
71960;BMP280;59832;51.146;14.024;2024-03-23T04:35:34;97183.63;;;6.98
71960;BMP280;59832;51.146;14.024;2024-03-23T04:38:00;97179.34;;;7.02
71960;BMP280;59832;51.146;14.024;2024-03-23T04:40:25;97176.91;;;7.06
71960;BMP280;59832;51.146;14.024;2024-03-23T04:42:51;97175.00;;;6.99
71960;BMP280;59832;51.146;14.024;2024-03-23T04:45:16;97167.28;;;6.92
71960;BMP280;59832;51.146;14.024;2024-03-23T04:47:42;97159.19;;;7.06
71960;BMP280;59832;51.146;14.024;2024-03-23T04:50:07;97155.19;;;7.05
71960;BMP280;59832;51.146;14.024;2024-03-23T04:52:33;97150.19;;;6.85
71960;BMP280;59832;51.146;14.024;2024-03-23T04:54:58;97163.06;;;6.77
71960;BMP280;59832;51.146;14.024;2024-03-23T04:57:24;97164.63;;;6.85
71960;BMP280;59832;51.146;14.024;2024-03-23T04:59:49;97157.84;;;6.89
71960;BMP280;59832;51.146;14.024;2024-03-23T05:02:14;97152.38;;;6.87
71960;BMP280;59832;51.146;14.024;2024-03-23T05:04:40;97152.56;;;6.98
71960;BMP280;59832;51.146;14.024;2024-03-23T05:07:06;97145.41;;;7.03
71960;BMP280;59832;51.146;14.024;2024-03-23T05:09:31;97104.88;;;7.26
71960;BMP280;59832;51.146;14.024;2024-03-23T05:11:58;97095.88;;;7.28
71960;BMP280;59832;51.146;14.024;2024-03-23T05:14:24;97091.78;;;7.20
71960;BMP280;59832;51.146;14.024;2024-03-23T05:16:49;97084.31;;;7.27
71960;BMP280;59832;51.146;14.024;2024-03-23T05:19:14;97074.81;;;7.21
71960;BMP280;59832;51.146;14.024;2024-03-23T05:21:40;97082.25;;;7.10
71960;BMP280;59832;51.146;14.024;2024-03-23T05:24:05;97068.13;;;7.06
71960;BMP280;59832;51.146;14.024;2024-03-23T05:26:31;97066.31;;;7.06
71960;BMP280;59832;51.146;14.024;2024-03-23T05:28:56;97067.06;;;7.07
71960;BMP280;59832;51.146;14.024;2024-03-23T05:31:22;97064.75;;;6.98
71960;BMP280;59832;51.146;14.024;2024-03-23T05:33:48;97063.00;;;7.02
71960;BMP280;59832;51.146;14.024;2024-03-23T05:36:13;97055.56;;;7.13
71960;BMP280;59832;51.146;14.024;2024-03-23T05:38:38;97056.63;;;7.12
71960;BMP280;59832;51.146;14.024;2024-03-23T05:41:04;97040.19;;;6.99
71960;BMP280;59832;51.146;14.024;2024-03-23T05:43:30;97021.63;;;7.17
71960;BMP280;59832;51.146;14.024;2024-03-23T05:45:56;97009.88;;;7.02
71960;BMP280;59832;51.146;14.024;2024-03-23T05:48:22;97025.13;;;7.06
71960;BMP280;59832;51.146;14.024;2024-03-23T05:50:48;97022.81;;;7.23
71960;BMP280;59832;51.146;14.024;2024-03-23T05:53:14;97013.09;;;6.99
71960;BMP280;59832;51.146;14.024;2024-03-23T05:55:39;97024.38;;;7.05
71960;BMP280;59832;51.146;14.024;2024-03-23T05:58:05;97030.00;;;7.21
71960;BMP280;59832;51.146;14.024;2024-03-23T06:00:30;97037.06;;;7.39
71960;BMP280;59832;51.146;14.024;2024-03-23T06:02:56;97041.41;;;7.38
71960;BMP280;59832;51.146;14.024;2024-03-23T06:05:21;97034.41;;;7.58
71960;BMP280;59832;51.146;14.024;2024-03-23T06:07:47;97029.78;;;7.67
71960;BMP280;59832;51.146;14.024;2024-03-23T06:10:12;97026.78;;;7.24
71960;BMP280;59832;51.146;14.024;2024-03-23T06:12:37;97018.75;;;7.19
71960;BMP280;59832;51.146;14.024;2024-03-23T06:15:03;97001.50;;;7.24
71960;BMP280;59832;51.146;14.024;2024-03-23T06:17:28;96990.91;;;7.15
71960;BMP280;59832;51.146;14.024;2024-03-23T06:19:54;96987.59;;;7.45
71960;BMP280;59832;51.146;14.024;2024-03-23T06:22:19;96985.06;;;7.45
71960;BMP280;59832;51.146;14.024;2024-03-23T06:24:45;96971.06;;;7.54
71960;BMP280;59832;51.146;14.024;2024-03-23T06:27:11;96960.81;;;7.40
71960;BMP280;59832;51.146;14.024;2024-03-23T06:29:36;96959.81;;;7.52
71960;BMP280;59832;51.146;14.024;2024-03-23T06:32:02;96953.47;;;7.32
71960;BMP280;59832;51.146;14.024;2024-03-23T06:34:28;96951.38;;;7.37
71960;BMP280;59832;51.146;14.024;2024-03-23T06:36:54;96931.44;;;7.32
71960;BMP280;59832;51.146;14.024;2024-03-23T06:39:19;96933.66;;;7.37
71960;BMP280;59832;51.146;14.024;2024-03-23T06:41:51;96925.78;;;7.42
71960;BMP280;59832;51.146;14.024;2024-03-23T06:44:17;96919.31;;;7.52
71960;BMP280;59832;51.146;14.024;2024-03-23T06:46:42;96907.41;;;7.56
71960;BMP280;59832;51.146;14.024;2024-03-23T06:49:08;96915.31;;;7.47
71960;BMP280;59832;51.146;14.024;2024-03-23T06:51:33;96913.91;;;7.50
71960;BMP280;59832;51.146;14.024;2024-03-23T06:53:59;96909.00;;;7.71
71960;BMP280;59832;51.146;14.024;2024-03-23T06:56:24;96904.63;;;7.64
71960;BMP280;59832;51.146;14.024;2024-03-23T06:58:49;96895.88;;;7.58
71960;BMP280;59832;51.146;14.024;2024-03-23T07:01:15;96877.03;;;7.56
71960;BMP280;59832;51.146;14.024;2024-03-23T07:03:40;96866.59;;;7.57
71960;BMP280;59832;51.146;14.024;2024-03-23T07:06:05;96871.22;;;7.52
71960;BMP280;59832;51.146;14.024;2024-03-23T07:08:31;96871.41;;;7.73
71960;BMP280;59832;51.146;14.024;2024-03-23T07:10:56;96871.19;;;7.92
71960;BMP280;59832;51.146;14.024;2024-03-23T07:13:22;96869.47;;;8.03
71960;BMP280;59832;51.146;14.024;2024-03-23T07:15:51;96866.22;;;8.06
71960;BMP280;59832;51.146;14.024;2024-03-23T07:18:16;96863.63;;;7.99
71960;BMP280;59832;51.146;14.024;2024-03-23T07:20:42;96859.97;;;7.93
71960;BMP280;59832;51.146;14.024;2024-03-23T07:23:07;96870.50;;;7.99
71960;BMP280;59832;51.146;14.024;2024-03-23T07:25:33;96869.47;;;8.07
71960;BMP280;59832;51.146;14.024;2024-03-23T07:27:58;96881.72;;;7.98
71960;BMP280;59832;51.146;14.024;2024-03-23T07:30:24;96881.03;;;8.04
71960;BMP280;59832;51.146;14.024;2024-03-23T07:32:50;96870.94;;;8.11
71960;BMP280;59832;51.146;14.024;2024-03-23T07:35:15;96876.75;;;8.15
71960;BMP280;59832;51.146;14.024;2024-03-23T07:37:41;96879.66;;;8.21
71960;BMP280;59832;51.146;14.024;2024-03-23T07:40:07;96858.44;;;8.40
71960;BMP280;59832;51.146;14.024;2024-03-23T07:42:33;96842.13;;;8.41
71960;BMP280;59832;51.146;14.024;2024-03-23T07:44:58;96836.34;;;8.44
71960;BMP280;59832;51.146;14.024;2024-03-23T07:47:23;96834.56;;;8.48
71960;BMP280;59832;51.146;14.024;2024-03-23T07:49:49;96827.34;;;8.57
71960;BMP280;59832;51.146;14.024;2024-03-23T07:52:14;96820.16;;;8.70
71960;BMP280;59832;51.146;14.024;2024-03-23T07:54:40;96805.66;;;8.77
71960;BMP280;59832;51.146;14.024;2024-03-23T07:57:05;96806.38;;;8.67
71960;BMP280;59832;51.146;14.024;2024-03-23T07:59:31;96791.09;;;8.56
71960;BMP280;59832;51.146;14.024;2024-03-23T08:01:59;96785.75;;;8.79
71960;BMP280;59832;51.146;14.024;2024-03-23T08:04:25;96790.06;;;8.75
71960;BMP280;59832;51.146;14.024;2024-03-23T08:06:50;96788.97;;;8.62
71960;BMP280;59832;51.146;14.024;2024-03-23T08:09:15;96781.75;;;8.78
71960;BMP280;59832;51.146;14.024;2024-03-23T08:11:41;96777.06;;;8.87
71960;BMP280;59832;51.146;14.024;2024-03-23T08:14:09;96772.38;;;9.07
71960;BMP280;59832;51.146;14.024;2024-03-23T08:16:35;96768.00;;;8.93
71960;BMP280;59832;51.146;14.024;2024-03-23T08:19:00;96758.94;;;9.03
71960;BMP280;59832;51.146;14.024;2024-03-23T08:21:28;96758.19;;;9.10
71960;BMP280;59832;51.146;14.024;2024-03-23T08:23:54;96741.53;;;9.19
71960;BMP280;59832;51.146;14.024;2024-03-23T08:26:19;96743.72;;;9.31
71960;BMP280;59832;51.146;14.024;2024-03-23T08:28:44;96733.56;;;9.17
71960;BMP280;59832;51.146;14.024;2024-03-23T08:31:10;96731.00;;;9.35
71960;BMP280;59832;51.146;14.024;2024-03-23T08:33:36;96722.31;;;9.25
71960;BMP280;59832;51.146;14.024;2024-03-23T08:36:03;96712.53;;;9.20
71960;BMP280;59832;51.146;14.024;2024-03-23T08:38:29;96718.31;;;9.28
71960;BMP280;59832;51.146;14.024;2024-03-23T08:43:26;96700.81;;;9.72
71960;BMP280;59832;51.146;14.024;2024-03-23T08:45:52;96697.56;;;9.65
71960;BMP280;59832;51.146;14.024;2024-03-23T08:48:18;96690.56;;;9.86
71960;BMP280;59832;51.146;14.024;2024-03-23T08:50:45;96688.69;;;10.01
71960;BMP280;59832;51.146;14.024;2024-03-23T08:53:11;96688.41;;;9.88
71960;BMP280;59832;51.146;14.024;2024-03-23T08:55:36;96686.91;;;9.94
71960;BMP280;59832;51.146;14.024;2024-03-23T08:58:02;96685.41;;;10.04
71960;BMP280;59832;51.146;14.024;2024-03-23T09:00:27;96688.69;;;10.05
71960;BMP280;59832;51.146;14.024;2024-03-23T09:02:52;96690.84;;;10.06
71960;BMP280;59832;51.146;14.024;2024-03-23T09:05:19;96697.81;;;9.91
71960;BMP280;59832;51.146;14.024;2024-03-23T09:07:44;96697.50;;;9.82
71960;BMP280;59832;51.146;14.024;2024-03-23T09:10:10;96704.03;;;9.80
71960;BMP280;59832;51.146;14.024;2024-03-23T09:12:35;96709.09;;;9.83
71960;BMP280;59832;51.146;14.024;2024-03-23T09:15:01;96701.03;;;9.99
71960;BMP280;59832;51.146;14.024;2024-03-23T09:17:26;96701.69;;;10.17
71960;BMP280;59832;51.146;14.024;2024-03-23T09:19:51;96700.44;;;10.43
71960;BMP280;59832;51.146;14.024;2024-03-23T09:22:17;96699.28;;;10.51
71960;BMP280;59832;51.146;14.024;2024-03-23T09:24:42;96693.84;;;10.53
71960;BMP280;59832;51.146;14.024;2024-03-23T09:27:07;96704.22;;;10.72
71960;BMP280;59832;51.146;14.024;2024-03-23T09:29:33;96697.94;;;10.87
71960;BMP280;59832;51.146;14.024;2024-03-23T09:31:58;96697.81;;;11.02
71960;BMP280;59832;51.146;14.024;2024-03-23T09:34:24;96710.91;;;11.00
71960;BMP280;59832;51.146;14.024;2024-03-23T09:36:52;96694.44;;;11.12
71960;BMP280;59832;51.146;14.024;2024-03-23T09:39:18;96705.72;;;11.07
71960;BMP280;59832;51.146;14.024;2024-03-23T09:41:44;96697.06;;;11.05
71960;BMP280;59832;51.146;14.024;2024-03-23T09:44:10;96702.09;;;11.08
71960;BMP280;59832;51.146;14.024;2024-03-23T09:46:35;96705.72;;;11.11
71960;BMP280;59832;51.146;14.024;2024-03-23T09:49:02;96688.19;;;11.16
71960;BMP280;59832;51.146;14.024;2024-03-23T09:51:30;96701.38;;;11.08
71960;BMP280;59832;51.146;14.024;2024-03-23T09:53:55;96705.81;;;11.00
71960;BMP280;59832;51.146;14.024;2024-03-23T09:56:21;96697.09;;;10.98
71960;BMP280;59832;51.146;14.024;2024-03-23T09:58:46;96726.31;;;10.82
71960;BMP280;59832;51.146;14.024;2024-03-23T10:01:12;96707.81;;;10.78
71960;BMP280;59832;51.146;14.024;2024-03-23T10:03:44;96714.91;;;10.53
71960;BMP280;59832;51.146;14.024;2024-03-23T10:06:10;96723.69;;;10.45
71960;BMP280;59832;51.146;14.024;2024-03-23T10:08:35;96740.56;;;10.11
71960;BMP280;59832;51.146;14.024;2024-03-23T10:11:14;96759.25;;;9.58
71960;BMP280;59832;51.146;14.024;2024-03-23T10:13:43;96756.72;;;9.51
71960;BMP280;59832;51.146;14.024;2024-03-23T10:16:09;96771.97;;;9.19
71960;BMP280;59832;51.146;14.024;2024-03-23T10:18:41;96778.50;;;9.02
71960;BMP280;59832;51.146;14.024;2024-03-23T10:21:07;96813.63;;;8.72
71960;BMP280;59832;51.146;14.024;2024-03-23T10:23:37;96822.06;;;8.11
71960;BMP280;59832;51.146;14.024;2024-03-23T10:26:12;96859.00;;;7.61
71960;BMP280;59832;51.146;14.024;2024-03-23T10:31:16;96899.03;;;7.11
71960;BMP280;59832;51.146;14.024;2024-03-23T10:33:45;96904.75;;;7.05
71960;BMP280;59832;51.146;14.024;2024-03-23T10:36:12;96932.69;;;6.82
71960;BMP280;59832;51.146;14.024;2024-03-23T10:38:37;96950.03;;;6.57
71960;BMP280;59832;51.146;14.024;2024-03-23T10:41:03;96958.50;;;6.19
71960;BMP280;59832;51.146;14.024;2024-03-23T10:43:29;96983.34;;;5.72
71960;BMP280;59832;51.146;14.024;2024-03-23T10:45:56;97006.41;;;5.51
71960;BMP280;59832;51.146;14.024;2024-03-23T10:48:21;97011.94;;;5.22
71960;BMP280;59832;51.146;14.024;2024-03-23T10:50:46;97031.00;;;5.03
71960;BMP280;59832;51.146;14.024;2024-03-23T10:53:12;97043.78;;;4.95
71960;BMP280;59832;51.146;14.024;2024-03-23T10:55:38;97070.72;;;4.91
71960;BMP280;59832;51.146;14.024;2024-03-23T10:58:05;97075.41;;;4.76
71960;BMP280;59832;51.146;14.024;2024-03-23T11:00:31;97093.63;;;4.70
71960;BMP280;59832;51.146;14.024;2024-03-23T11:02:56;97103.63;;;4.66
71960;BMP280;59832;51.146;14.024;2024-03-23T11:07:50;97114.78;;;4.65
71960;BMP280;59832;51.146;14.024;2024-03-23T11:10:29;97129.16;;;4.65
71960;BMP280;59832;51.146;14.024;2024-03-23T11:12:55;97143.44;;;4.61
71960;BMP280;59832;51.146;14.024;2024-03-23T11:15:21;97141.97;;;4.60
71960;BMP280;59832;51.146;14.024;2024-03-23T11:18:06;97138.97;;;4.54
71960;BMP280;59832;51.146;14.024;2024-03-23T11:20:37;97136.59;;;4.46
71960;BMP280;59832;51.146;14.024;2024-03-23T11:23:02;97143.00;;;4.43
71960;BMP280;59832;51.146;14.024;2024-03-23T11:25:28;97164.75;;;4.36
71960;BMP280;59832;51.146;14.024;2024-03-23T11:27:57;97163.09;;;4.15
71960;BMP280;59832;51.146;14.024;2024-03-23T11:30:23;97169.28;;;4.30
71960;BMP280;59832;51.146;14.024;2024-03-23T11:32:54;97167.72;;;4.25
71960;BMP280;59832;51.146;14.024;2024-03-23T11:40:39;97193.09;;;4.32
71960;BMP280;59832;51.146;14.024;2024-03-23T11:43:07;97203.69;;;4.26
71960;BMP280;59832;51.146;14.024;2024-03-23T11:45:36;97200.97;;;4.19
71960;BMP280;59832;51.146;14.024;2024-03-23T11:48:04;97228.94;;;4.14
71960;BMP280;59832;51.146;14.024;2024-03-23T11:50:29;97217.50;;;4.04
71960;BMP280;59832;51.146;14.024;2024-03-23T11:55:49;97250.66;;;3.94
71960;BMP280;59832;51.146;14.024;2024-03-23T11:58:15;97251.34;;;3.94
71960;BMP280;59832;51.146;14.024;2024-03-23T12:00:41;97248.75;;;3.79
71960;BMP280;59832;51.146;14.024;2024-03-23T12:03:06;97254.31;;;3.84
71960;BMP280;59832;51.146;14.024;2024-03-23T12:05:32;97251.78;;;3.84
71960;BMP280;59832;51.146;14.024;2024-03-23T12:10:53;97251.78;;;3.97
71960;BMP280;59832;51.146;14.024;2024-03-23T12:13:19;97251.44;;;3.98
71960;BMP280;59832;51.146;14.024;2024-03-23T12:15:45;97243.41;;;4.05
71960;BMP280;59832;51.146;14.024;2024-03-23T12:18:11;97235.31;;;4.11
71960;BMP280;59832;51.146;14.024;2024-03-23T12:20:37;97235.50;;;4.18
71960;BMP280;59832;51.146;14.024;2024-03-23T12:23:09;97246.44;;;4.10
71960;BMP280;59832;51.146;14.024;2024-03-23T12:25:37;97245.03;;;4.25
71960;BMP280;59832;51.146;14.024;2024-03-23T12:28:02;97240.53;;;4.18
71960;BMP280;59832;51.146;14.024;2024-03-23T12:30:28;97240.47;;;4.15
71960;BMP280;59832;51.146;14.024;2024-03-23T12:32:53;97252.09;;;4.19
71960;BMP280;59832;51.146;14.024;2024-03-23T12:35:19;97245.88;;;4.17
71960;BMP280;59832;51.146;14.024;2024-03-23T12:37:44;97258.47;;;4.17
71960;BMP280;59832;51.146;14.024;2024-03-23T12:40:10;97243.19;;;4.10
71960;BMP280;59832;51.146;14.024;2024-03-23T12:42:35;97241.94;;;4.04
71960;BMP280;59832;51.146;14.024;2024-03-23T12:45:01;97240.66;;;4.10
71960;BMP280;59832;51.146;14.024;2024-03-23T12:47:26;97236.69;;;4.09
71960;BMP280;59832;51.146;14.024;2024-03-23T12:49:52;97230.28;;;4.23
71960;BMP280;59832;51.146;14.024;2024-03-23T12:52:17;97232.78;;;4.23
71960;BMP280;59832;51.146;14.024;2024-03-23T12:54:43;97262.66;;;4.25
71960;BMP280;59832;51.146;14.024;2024-03-23T12:57:08;97268.66;;;4.32
71960;BMP280;59832;51.146;14.024;2024-03-23T12:59:34;97263.53;;;4.29
71960;BMP280;59832;51.146;14.024;2024-03-23T13:02:00;97276.84;;;4.17
71960;BMP280;59832;51.146;14.024;2024-03-23T13:04:26;97276.97;;;4.21
71960;BMP280;59832;51.146;14.024;2024-03-23T13:06:51;97284.50;;;4.45
71960;BMP280;59832;51.146;14.024;2024-03-23T13:09:17;97288.03;;;4.56
71960;BMP280;59832;51.146;14.024;2024-03-23T13:11:42;97281.84;;;4.54
71960;BMP280;59832;51.146;14.024;2024-03-23T13:14:08;97260.25;;;4.41
71960;BMP280;59832;51.146;14.024;2024-03-23T13:16:33;97242.94;;;4.39
71960;BMP280;59832;51.146;14.024;2024-03-23T13:18:58;97228.31;;;4.45
71960;BMP280;59832;51.146;14.024;2024-03-23T13:21:24;97236.94;;;4.44
71960;BMP280;59832;51.146;14.024;2024-03-23T13:23:49;97241.78;;;4.49
71960;BMP280;59832;51.146;14.024;2024-03-23T13:26:16;97261.06;;;4.45
71960;BMP280;59832;51.146;14.024;2024-03-23T13:28:41;97296.25;;;4.53
71960;BMP280;59832;51.146;14.024;2024-03-23T13:31:07;97314.09;;;4.48
71960;BMP280;59832;51.146;14.024;2024-03-23T13:33:33;97306.63;;;4.52
71960;BMP280;59832;51.146;14.024;2024-03-23T13:35:59;97326.88;;;4.55
71960;BMP280;59832;51.146;14.024;2024-03-23T13:38:25;97337.69;;;4.56
71960;BMP280;59832;51.146;14.024;2024-03-23T13:43:19;97346.56;;;4.78
71960;BMP280;59832;51.146;14.024;2024-03-23T13:45:46;97350.56;;;4.79
71960;BMP280;59832;51.146;14.024;2024-03-23T13:48:12;97358.97;;;4.83
71960;BMP280;59832;51.146;14.024;2024-03-23T13:50:37;97342.81;;;4.84
71960;BMP280;59832;51.146;14.024;2024-03-23T13:53:02;97340.78;;;4.89
71960;BMP280;59832;51.146;14.024;2024-03-23T13:55:28;97327.81;;;5.03
71960;BMP280;59832;51.146;14.024;2024-03-23T13:57:54;97321.00;;;5.03
71960;BMP280;59832;51.146;14.024;2024-03-23T14:00:19;97312.28;;;5.01
71960;BMP280;59832;51.146;14.024;2024-03-23T14:02:45;97322.47;;;5.04
71960;BMP280;59832;51.146;14.024;2024-03-23T14:05:11;97329.81;;;4.97
71960;BMP280;59832;51.146;14.024;2024-03-23T14:07:36;97318.47;;;5.03
71960;BMP280;59832;51.146;14.024;2024-03-23T14:10:03;97322.63;;;5.11
71960;BMP280;59832;51.146;14.024;2024-03-23T14:12:28;97313.28;;;5.12
71960;BMP280;59832;51.146;14.024;2024-03-23T14:14:54;97305.56;;;5.21
71960;BMP280;59832;51.146;14.024;2024-03-23T14:17:20;97319.53;;;5.46
71960;BMP280;59832;51.146;14.024;2024-03-23T14:19:45;97322.25;;;5.84
71960;BMP280;59832;51.146;14.024;2024-03-23T14:22:11;97329.63;;;6.09
71960;BMP280;59832;51.146;14.024;2024-03-23T14:24:37;97319.84;;;6.23
71960;BMP280;59832;51.146;14.024;2024-03-23T14:27:02;97325.81;;;6.15
71960;BMP280;59832;51.146;14.024;2024-03-23T14:29:30;97334.13;;;6.15
71960;BMP280;59832;51.146;14.024;2024-03-23T14:31:56;97346.91;;;6.07
71960;BMP280;59832;51.146;14.024;2024-03-23T14:34:22;97336.91;;;5.94
71960;BMP280;59832;51.146;14.024;2024-03-23T14:36:51;97335.13;;;5.95
71960;BMP280;59832;51.146;14.024;2024-03-23T14:39:17;97332.34;;;6.00
71960;BMP280;59832;51.146;14.024;2024-03-23T14:41:42;97333.63;;;6.10
71960;BMP280;59832;51.146;14.024;2024-03-23T14:44:08;97330.47;;;6.13
71960;BMP280;59832;51.146;14.024;2024-03-23T14:46:33;97328.16;;;6.23
71960;BMP280;59832;51.146;14.024;2024-03-23T14:48:59;97330.59;;;6.20
71960;BMP280;59832;51.146;14.024;2024-03-23T14:51:24;97328.78;;;6.36
71960;BMP280;59832;51.146;14.024;2024-03-23T14:53:49;97321.41;;;6.27
71960;BMP280;59832;51.146;14.024;2024-03-23T14:56:15;97325.78;;;6.30
71960;BMP280;59832;51.146;14.024;2024-03-23T14:58:41;97323.97;;;6.31
71960;BMP280;59832;51.146;14.024;2024-03-23T15:01:07;97326.91;;;6.33
71960;BMP280;59832;51.146;14.024;2024-03-23T15:03:36;97325.09;;;6.33
71960;BMP280;59832;51.146;14.024;2024-03-23T15:06:02;97322.78;;;6.25
71960;BMP280;59832;51.146;14.024;2024-03-23T15:08:27;97315.44;;;6.20
71960;BMP280;59832;51.146;14.024;2024-03-23T15:10:53;97311.03;;;6.17
71960;BMP280;59832;51.146;14.024;2024-03-23T15:13:18;97304.47;;;6.31
71960;BMP280;59832;51.146;14.024;2024-03-23T15:15:44;97307.63;;;6.25